sensor_id;sensor_type;location;lat;lon;timestamp;temperature;humidity
15676;DHT22;7938;47.666;9.434;2022-09-04T04:01:05;13.30;99.90
15676;DHT22;7938;47.666;9.434;2022-09-04T04:03:53;13.30;99.90
15676;DHT22;7938;47.666;9.434;2022-09-04T04:06:29;13.30;99.90
15676;DHT22;7938;47.666;9.434;2022-09-04T04:09:16;13.30;99.90
15676;DHT22;7938;47.666;9.434;2022-09-04T04:12:05;13.30;99.90
15676;DHT22;7938;47.666;9.434;2022-09-04T04:15:01;13.20;99.90
15676;DHT22;7938;47.666;9.434;2022-09-04T04:17:53;13.20;99.90
15676;DHT22;7938;47.666;9.434;2022-09-04T04:20:32;13.20;99.90
15676;DHT22;7938;47.666;9.434;2022-09-04T04:26:21;13.20;99.90
15676;DHT22;7938;47.666;9.434;2022-09-04T04:29:14;13.10;99.90
15676;DHT22;7938;47.666;9.434;2022-09-04T04:31:53;13.00;99.90
15676;DHT22;7938;47.666;9.434;2022-09-04T04:34:49;13.00;99.90
15676;DHT22;7938;47.666;9.434;2022-09-04T04:37:25;13.00;99.90
15676;DHT22;7938;47.666;9.434;2022-09-04T04:40:02;13.00;99.90
15676;DHT22;7938;47.666;9.434;2022-09-04T04:42:35;13.00;99.90
15676;DHT22;7938;47.666;9.434;2022-09-04T04:45:18;13.00;99.90
15676;DHT22;7938;47.666;9.434;2022-09-04T04:48:34;13.00;99.90
15676;DHT22;7938;47.666;9.434;2022-09-04T04:51:16;13.00;99.90
15676;DHT22;7938;47.666;9.434;2022-09-04T04:53:50;13.00;99.90
15676;DHT22;7938;47.666;9.434;2022-09-04T04:56:23;13.00;99.90
15676;DHT22;7938;47.666;9.434;2022-09-04T04:58:57;13.00;99.90
15676;DHT22;7938;47.666;9.434;2022-09-04T05:01:38;13.00;99.90
15676;DHT22;7938;47.666;9.434;2022-09-04T05:04:13;13.00;99.90
15676;DHT22;7938;47.666;9.434;2022-09-04T05:06:49;13.00;99.90
15676;DHT22;7938;47.666;9.434;2022-09-04T05:09:24;13.00;99.90
15676;DHT22;7938;47.666;9.434;2022-09-04T05:11:58;13.00;99.90
15676;DHT22;7938;47.666;9.434;2022-09-04T05:14:39;13.00;99.90
15676;DHT22;7938;47.666;9.434;2022-09-04T05:17:16;13.00;99.90
15676;DHT22;7938;47.666;9.434;2022-09-04T05:19:51;13.00;99.90
15676;DHT22;7938;47.666;9.434;2022-09-04T05:22:30;13.10;99.90
15676;DHT22;7938;47.666;9.434;2022-09-04T05:25:04;13.10;99.90
15676;DHT22;7938;47.666;9.434;2022-09-04T05:27:45;13.20;99.90
15676;DHT22;7938;47.666;9.434;2022-09-04T05:30:17;13.20;99.90
15676;DHT22;7938;47.666;9.434;2022-09-04T05:32:54;13.20;99.90
15676;DHT22;7938;47.666;9.434;2022-09-04T05:35:31;13.20;99.90
15676;DHT22;7938;47.666;9.434;2022-09-04T05:38:06;13.20;99.90
15676;DHT22;7938;47.666;9.434;2022-09-04T05:40:50;13.30;99.90
15676;DHT22;7938;47.666;9.434;2022-09-04T05:43:29;13.30;99.90
15676;DHT22;7938;47.666;9.434;2022-09-04T05:46:04;13.30;99.90
15676;DHT22;7938;47.666;9.434;2022-09-04T05:48:40;13.30;99.90
15676;DHT22;7938;47.666;9.434;2022-09-04T05:51:31;13.40;99.90
15676;DHT22;7938;47.666;9.434;2022-09-04T05:54:24;13.40;99.90
15676;DHT22;7938;47.666;9.434;2022-09-04T05:57:13;13.60;99.90
15676;DHT22;7938;47.666;9.434;2022-09-04T06:00:00;13.70;99.90
15676;DHT22;7938;47.666;9.434;2022-09-04T06:02:50;13.80;99.90
15676;DHT22;7938;47.666;9.434;2022-09-04T06:05:28;13.90;99.90
15676;DHT22;7938;47.666;9.434;2022-09-04T06:08:04;14.10;99.90
15676;DHT22;7938;47.666;9.434;2022-09-04T06:10:45;14.30;99.90
15676;DHT22;7938;47.666;9.434;2022-09-04T06:13:33;14.40;99.90
15676;DHT22;7938;47.666;9.434;2022-09-04T06:19:18;14.60;99.90
15676;DHT22;7938;47.666;9.434;2022-09-04T06:22:22;14.70;99.90
15676;DHT22;7938;47.666;9.434;2022-09-04T06:25:13;14.80;99.90
15676;DHT22;7938;47.666;9.434;2022-09-04T06:28:02;14.90;99.90
15676;DHT22;7938;47.666;9.434;2022-09-04T06:30:35;14.90;99.90
15676;DHT22;7938;47.666;9.434;2022-09-04T06:33:33;15.10;99.90
15676;DHT22;7938;47.666;9.434;2022-09-04T06:36:39;15.30;99.90
15676;DHT22;7938;47.666;9.434;2022-09-04T06:39:25;15.30;99.90
15676;DHT22;7938;47.666;9.434;2022-09-04T06:42:07;15.50;99.90
15676;DHT22;7938;47.666;9.434;2022-09-04T06:44:49;15.60;99.90
15676;DHT22;7938;47.666;9.434;2022-09-04T06:47:31;15.70;99.90
15676;DHT22;7938;47.666;9.434;2022-09-04T06:50:12;15.80;99.90
15676;DHT22;7938;47.666;9.434;2022-09-04T06:52:47;15.90;99.90
15676;DHT22;7938;47.666;9.434;2022-09-04T06:55:23;16.00;99.90
15676;DHT22;7938;47.666;9.434;2022-09-04T06:58:04;16.10;99.90
15676;DHT22;7938;47.666;9.434;2022-09-04T07:00:37;16.30;99.90
15676;DHT22;7938;47.666;9.434;2022-09-04T07:03:24;16.30;99.90
15676;DHT22;7938;47.666;9.434;2022-09-04T07:06:02;16.30;99.90
15676;DHT22;7938;47.666;9.434;2022-09-04T07:08:41;16.40;99.90
15676;DHT22;7938;47.666;9.434;2022-09-04T07:11:19;16.50;99.90
15676;DHT22;7938;47.666;9.434;2022-09-04T07:14:09;16.60;99.90
15676;DHT22;7938;47.666;9.434;2022-09-04T07:16:47;16.70;99.90
15676;DHT22;7938;47.666;9.434;2022-09-04T07:25:31;16.90;99.90
15676;DHT22;7938;47.666;9.434;2022-09-04T07:28:11;17.00;99.90
15676;DHT22;7938;47.666;9.434;2022-09-04T07:30:43;17.10;99.90
15676;DHT22;7938;47.666;9.434;2022-09-04T07:33:19;17.10;99.90
15676;DHT22;7938;47.666;9.434;2022-09-04T07:35:53;17.20;99.90
15676;DHT22;7938;47.666;9.434;2022-09-04T07:38:28;17.30;99.90
15676;DHT22;7938;47.666;9.434;2022-09-04T07:41:03;17.40;99.90
15676;DHT22;7938;47.666;9.434;2022-09-04T07:43:39;17.60;99.90
15676;DHT22;7938;47.666;9.434;2022-09-04T07:46:15;17.70;99.90
15676;DHT22;7938;47.666;9.434;2022-09-04T07:48:51;18.00;99.90
15676;DHT22;7938;47.666;9.434;2022-09-04T07:51:24;18.20;99.90
15676;DHT22;7938;47.666;9.434;2022-09-04T07:57:30;18.70;99.90
15676;DHT22;7938;47.666;9.434;2022-09-04T08:00:06;19.00;99.90
15676;DHT22;7938;47.666;9.434;2022-09-04T08:02:50;19.10;99.90
15676;DHT22;7938;47.666;9.434;2022-09-04T08:05:24;19.10;99.90
15676;DHT22;7938;47.666;9.434;2022-09-04T08:11:04;19.00;99.90
15676;DHT22;7938;47.666;9.434;2022-09-04T08:16:40;18.60;99.90
15676;DHT22;7938;47.666;9.434;2022-09-04T08:19:26;18.50;99.90
15676;DHT22;7938;47.666;9.434;2022-09-04T08:21:55;18.50;99.90
15676;DHT22;7938;47.666;9.434;2022-09-04T08:24:43;18.50;99.90
15676;DHT22;7938;47.666;9.434;2022-09-04T08:27:26;18.60;99.90
15676;DHT22;7938;47.666;9.434;2022-09-04T08:30:03;18.60;99.90
15676;DHT22;7938;47.666;9.434;2022-09-04T08:33:11;18.60;99.90
15676;DHT22;7938;47.666;9.434;2022-09-04T08:35:51;18.60;99.90
15676;DHT22;7938;47.666;9.434;2022-09-04T08:38:39;18.70;99.90
15676;DHT22;7938;47.666;9.434;2022-09-04T08:41:35;18.70;99.90
15676;DHT22;7938;47.666;9.434;2022-09-04T08:56:39;18.90;99.90
15676;DHT22;7938;47.666;9.434;2022-09-04T08:59:44;18.90;99.90
15676;DHT22;7938;47.666;9.434;2022-09-04T09:02:55;18.90;99.90
15676;DHT22;7938;47.666;9.434;2022-09-04T09:06:11;19.00;99.90
15676;DHT22;7938;47.666;9.434;2022-09-04T09:15:50;19.30;99.90
15676;DHT22;7938;47.666;9.434;2022-09-04T09:18:33;19.50;99.90
15676;DHT22;7938;47.666;9.434;2022-09-04T09:21:06;19.60;99.90
15676;DHT22;7938;47.666;9.434;2022-09-04T09:23:43;19.70;99.90
15676;DHT22;7938;47.666;9.434;2022-09-04T09:26:25;19.80;99.90
15676;DHT22;7938;47.666;9.434;2022-09-04T09:29:23;19.80;99.90
15676;DHT22;7938;47.666;9.434;2022-09-04T09:32:37;20.00;99.90
15676;DHT22;7938;47.666;9.434;2022-09-04T09:42:08;20.20;99.90
15676;DHT22;7938;47.666;9.434;2022-09-04T09:47:55;20.30;99.90
15676;DHT22;7938;47.666;9.434;2022-09-04T09:50:48;20.50;99.90
15676;DHT22;7938;47.666;9.434;2022-09-04T09:53:41;20.40;99.90
15676;DHT22;7938;47.666;9.434;2022-09-04T10:08:40;20.50;99.90
15676;DHT22;7938;47.666;9.434;2022-09-04T10:11:39;20.50;99.90
15676;DHT22;7938;47.666;9.434;2022-09-04T10:17:34;20.60;99.90
15676;DHT22;7938;47.666;9.434;2022-09-04T10:20:37;20.70;99.90
15676;DHT22;7938;47.666;9.434;2022-09-04T10:23:30;20.70;99.90
15676;DHT22;7938;47.666;9.434;2022-09-04T10:26:36;20.70;99.90
15676;DHT22;7938;47.666;9.434;2022-09-04T10:29:27;20.80;99.90
15676;DHT22;7938;47.666;9.434;2022-09-04T10:32:23;21.00;99.90
15676;DHT22;7938;47.666;9.434;2022-09-04T10:35:10;21.00;99.90
15676;DHT22;7938;47.666;9.434;2022-09-04T10:37:54;20.90;99.90
15676;DHT22;7938;47.666;9.434;2022-09-04T10:40:27;20.90;99.90
15676;DHT22;7938;47.666;9.434;2022-09-04T10:43:26;20.90;99.90
15676;DHT22;7938;47.666;9.434;2022-09-04T10:46:01;20.90;99.90
15676;DHT22;7938;47.666;9.434;2022-09-04T10:48:52;20.90;99.90
15676;DHT22;7938;47.666;9.434;2022-09-04T10:51:57;21.00;99.90
15676;DHT22;7938;47.666;9.434;2022-09-04T10:54:50;21.20;99.90
15676;DHT22;7938;47.666;9.434;2022-09-04T10:57:34;21.40;99.90
15676;DHT22;7938;47.666;9.434;2022-09-04T11:00:08;21.50;99.90
15676;DHT22;7938;47.666;9.434;2022-09-04T11:09:18;21.70;99.90
15676;DHT22;7938;47.666;9.434;2022-09-04T11:12:14;21.80;99.90
15676;DHT22;7938;47.666;9.434;2022-09-04T11:15:02;21.90;99.90
15676;DHT22;7938;47.666;9.434;2022-09-04T11:24:06;22.10;99.90
15676;DHT22;7938;47.666;9.434;2022-09-04T11:30:11;22.10;99.90
15676;DHT22;7938;47.666;9.434;2022-09-04T11:33:08;22.30;99.90
15676;DHT22;7938;47.666;9.434;2022-09-04T11:36:15;22.30;99.90
15676;DHT22;7938;47.666;9.434;2022-09-04T11:39:19;22.40;99.90
15676;DHT22;7938;47.666;9.434;2022-09-04T11:42:23;22.50;99.90
15676;DHT22;7938;47.666;9.434;2022-09-04T11:45:15;22.50;99.90
15676;DHT22;7938;47.666;9.434;2022-09-04T11:51:04;22.60;99.90
15676;DHT22;7938;47.666;9.434;2022-09-04T11:54:03;22.70;99.90
15676;DHT22;7938;47.666;9.434;2022-09-04T11:56:43;22.70;99.90
15676;DHT22;7938;47.666;9.434;2022-09-04T12:02:56;22.90;99.90
15676;DHT22;7938;47.666;9.434;2022-09-04T12:08:37;23.00;99.90
15676;DHT22;7938;47.666;9.434;2022-09-04T12:14:31;23.10;99.90
15676;DHT22;7938;47.666;9.434;2022-09-04T12:23:35;23.30;99.90
15676;DHT22;7938;47.666;9.434;2022-09-04T12:35:55;23.40;99.90
15676;DHT22;7938;47.666;9.434;2022-09-04T12:38:51;23.50;99.90
15676;DHT22;7938;47.666;9.434;2022-09-04T12:41:26;23.60;99.90
15676;DHT22;7938;47.666;9.434;2022-09-04T12:44:05;23.70;99.90
15676;DHT22;7938;47.666;9.434;2022-09-04T12:46:44;23.70;99.90
15676;DHT22;7938;47.666;9.434;2022-09-04T12:52:26;23.60;99.90
15676;DHT22;7938;47.666;9.434;2022-09-04T12:55:04;23.70;99.90
15676;DHT22;7938;47.666;9.434;2022-09-04T12:57:40;23.70;99.90
15676;DHT22;7938;47.666;9.434;2022-09-04T13:00:12;23.70;99.90
15676;DHT22;7938;47.666;9.434;2022-09-04T13:02:57;23.80;99.90
15676;DHT22;7938;47.666;9.434;2022-09-04T13:05:34;23.80;99.90
15676;DHT22;7938;47.666;9.434;2022-09-04T13:08:14;23.90;99.90
15676;DHT22;7938;47.666;9.434;2022-09-04T13:10:54;23.70;99.90
15676;DHT22;7938;47.666;9.434;2022-09-04T13:13:31;23.70;99.90
15676;DHT22;7938;47.666;9.434;2022-09-04T13:16:07;23.80;99.90
15676;DHT22;7938;47.666;9.434;2022-09-04T13:18:43;23.80;99.90
15676;DHT22;7938;47.666;9.434;2022-09-04T13:21:23;23.90;99.90
15676;DHT22;7938;47.666;9.434;2022-09-04T13:24:03;24.10;99.90
15676;DHT22;7938;47.666;9.434;2022-09-04T13:27:00;24.00;99.90
15676;DHT22;7938;47.666;9.434;2022-09-04T13:29:40;24.10;99.90
15676;DHT22;7938;47.666;9.434;2022-09-04T13:32:31;24.30;99.90
15676;DHT22;7938;47.666;9.434;2022-09-04T13:35:07;24.10;99.90
15676;DHT22;7938;47.666;9.434;2022-09-04T13:37:47;24.30;99.90
15676;DHT22;7938;47.666;9.434;2022-09-04T13:43:30;24.30;99.90
15676;DHT22;7938;47.666;9.434;2022-09-04T13:46:06;24.50;99.90
15676;DHT22;7938;47.666;9.434;2022-09-04T13:48:40;24.60;99.90
15676;DHT22;7938;47.666;9.434;2022-09-04T13:51:11;24.90;99.90
15676;DHT22;7938;47.666;9.434;2022-09-04T13:53:55;25.00;99.90
15676;DHT22;7938;47.666;9.434;2022-09-04T13:56:29;25.10;99.90
15676;DHT22;7938;47.666;9.434;2022-09-04T13:59:02;25.10;99.90
15676;DHT22;7938;47.666;9.434;2022-09-04T14:01:36;25.40;99.90
15676;DHT22;7938;47.666;9.434;2022-09-04T14:04:13;25.50;99.90
15676;DHT22;7938;47.666;9.434;2022-09-04T14:06:42;25.40;99.90
15676;DHT22;7938;47.666;9.434;2022-09-04T14:09:10;25.30;99.90
15676;DHT22;7938;47.666;9.434;2022-09-04T14:12:03;25.40;99.90
15676;DHT22;7938;47.666;9.434;2022-09-04T14:17:45;25.40;99.90
15676;DHT22;7938;47.666;9.434;2022-09-04T14:20:20;25.20;99.50
15676;DHT22;7938;47.666;9.434;2022-09-04T14:22:56;25.40;99.90
15676;DHT22;7938;47.666;9.434;2022-09-04T14:25:34;25.40;99.80
15676;DHT22;7938;47.666;9.434;2022-09-04T14:28:10;25.60;99.50
15676;DHT22;7938;47.666;9.434;2022-09-04T14:30:49;25.80;98.40
15676;DHT22;7938;47.666;9.434;2022-09-04T14:33:23;26.00;97.90
15676;DHT22;7938;47.666;9.434;2022-09-04T14:35:59;26.20;98.00
15676;DHT22;7938;47.666;9.434;2022-09-04T14:38:52;27.00;95.50
15676;DHT22;7938;47.666;9.434;2022-09-04T14:41:38;29.20;92.40
15676;DHT22;7938;47.666;9.434;2022-09-04T14:44:21;29.30;92.60
15676;DHT22;7938;47.666;9.434;2022-09-04T14:47:01;30.60;90.60
15676;DHT22;7938;47.666;9.434;2022-09-04T14:49:39;31.90;90.00
15676;DHT22;7938;47.666;9.434;2022-09-04T14:52:13;32.40;86.30
15676;DHT22;7938;47.666;9.434;2022-09-04T14:54:44;33.20;83.10
15676;DHT22;7938;47.666;9.434;2022-09-04T14:57:17;33.50;81.10
15676;DHT22;7938;47.666;9.434;2022-09-04T14:59:49;33.50;82.50
15676;DHT22;7938;47.666;9.434;2022-09-04T15:02:27;33.90;79.50
15676;DHT22;7938;47.666;9.434;2022-09-04T15:05:00;34.80;77.30
15676;DHT22;7938;47.666;9.434;2022-09-04T15:07:51;35.40;73.60
15676;DHT22;7938;47.666;9.434;2022-09-04T15:10:23;35.70;70.90
15676;DHT22;7938;47.666;9.434;2022-09-04T15:13:02;35.60;71.30
15676;DHT22;7938;47.666;9.434;2022-09-04T15:15:35;36.00;70.40
15676;DHT22;7938;47.666;9.434;2022-09-04T15:18:09;35.90;72.30
15676;DHT22;7938;47.666;9.434;2022-09-04T15:20:48;35.80;69.60
15676;DHT22;7938;47.666;9.434;2022-09-04T15:23:23;36.10;70.90
15676;DHT22;7938;47.666;9.434;2022-09-04T15:25:58;35.70;71.30
15676;DHT22;7938;47.666;9.434;2022-09-04T15:28:32;35.10;73.90
15676;DHT22;7938;47.666;9.434;2022-09-04T15:31:08;35.40;72.20
15676;DHT22;7938;47.666;9.434;2022-09-04T15:33:39;34.90;71.40
15676;DHT22;7938;47.666;9.434;2022-09-04T15:36:09;35.00;74.60
15676;DHT22;7938;47.666;9.434;2022-09-04T15:38:45;35.40;69.70
15676;DHT22;7938;47.666;9.434;2022-09-04T15:41:17;36.00;68.20
15676;DHT22;7938;47.666;9.434;2022-09-04T15:43:49;36.10;68.80
15676;DHT22;7938;47.666;9.434;2022-09-04T15:46:23;36.30;68.10
15676;DHT22;7938;47.666;9.434;2022-09-04T15:48:58;36.10;68.90
15676;DHT22;7938;47.666;9.434;2022-09-04T15:51:35;37.00;69.10
15676;DHT22;7938;47.666;9.434;2022-09-04T15:54:24;36.40;66.10
15676;DHT22;7938;47.666;9.434;2022-09-04T15:57:00;36.50;68.40
15676;DHT22;7938;47.666;9.434;2022-09-04T15:59:39;36.70;65.30
15676;DHT22;7938;47.666;9.434;2022-09-04T16:02:27;36.60;63.70
15676;DHT22;7938;47.666;9.434;2022-09-04T16:05:08;36.80;65.10
15676;DHT22;7938;47.666;9.434;2022-09-04T16:07:44;36.70;65.80
15676;DHT22;7938;47.666;9.434;2022-09-04T16:10:17;36.60;69.60
15676;DHT22;7938;47.666;9.434;2022-09-04T16:12:55;36.20;66.40
15676;DHT22;7938;47.666;9.434;2022-09-04T16:15:25;36.20;65.50
15676;DHT22;7938;47.666;9.434;2022-09-04T16:17:58;36.50;65.50
15676;DHT22;7938;47.666;9.434;2022-09-04T16:20:32;36.20;65.90
15676;DHT22;7938;47.666;9.434;2022-09-04T16:23:04;36.20;66.80
15676;DHT22;7938;47.666;9.434;2022-09-04T16:25:36;35.60;68.00
15676;DHT22;7938;47.666;9.434;2022-09-04T16:28:06;35.90;65.60
15676;DHT22;7938;47.666;9.434;2022-09-04T16:30:37;35.10;65.40
15676;DHT22;7938;47.666;9.434;2022-09-04T16:33:17;35.10;66.40
15676;DHT22;7938;47.666;9.434;2022-09-04T16:35:47;35.20;66.00
15676;DHT22;7938;47.666;9.434;2022-09-04T16:38:19;35.00;67.30
15676;DHT22;7938;47.666;9.434;2022-09-04T16:40:50;35.40;67.90
15676;DHT22;7938;47.666;9.434;2022-09-04T16:43:25;35.60;66.10
15676;DHT22;7938;47.666;9.434;2022-09-04T16:46:03;35.90;64.80
15676;DHT22;7938;47.666;9.434;2022-09-04T16:48:39;35.80;69.20
15676;DHT22;7938;47.666;9.434;2022-09-04T16:51:13;35.20;70.70
15676;DHT22;7938;47.666;9.434;2022-09-04T16:53:45;34.00;71.80
15676;DHT22;7938;47.666;9.434;2022-09-04T16:56:22;32.30;75.80
15676;DHT22;7938;47.666;9.434;2022-09-04T16:58:52;30.60;79.30
15676;DHT22;7938;47.666;9.434;2022-09-04T17:01:25;29.50;80.00
15676;DHT22;7938;47.666;9.434;2022-09-04T17:04:16;28.40;82.40
15676;DHT22;7938;47.666;9.434;2022-09-04T17:06:57;27.20;86.40
15676;DHT22;7938;47.666;9.434;2022-09-04T17:09:39;26.40;87.60
15676;DHT22;7938;47.666;9.434;2022-09-04T17:12:18;25.70;90.30
15676;DHT22;7938;47.666;9.434;2022-09-04T17:14:51;25.30;91.50
15676;DHT22;7938;47.666;9.434;2022-09-04T17:17:21;24.80;93.90
15676;DHT22;7938;47.666;9.434;2022-09-04T17:20:03;24.50;94.30
15676;DHT22;7938;47.666;9.434;2022-09-04T17:22:39;24.10;94.80
15676;DHT22;7938;47.666;9.434;2022-09-04T17:25:13;23.80;95.90
15676;DHT22;7938;47.666;9.434;2022-09-04T17:27:45;23.50;96.10
15676;DHT22;7938;47.666;9.434;2022-09-04T17:30:21;23.20;96.90
15676;DHT22;7938;47.666;9.434;2022-09-04T17:32:56;22.90;98.00
15676;DHT22;7938;47.666;9.434;2022-09-04T17:35:30;22.80;98.40
15676;DHT22;7938;47.666;9.434;2022-09-04T17:38:08;21.70;97.90
15676;DHT22;7938;47.666;9.434;2022-09-04T17:40:56;22.20;99.10
15676;DHT22;7938;47.666;9.434;2022-09-04T17:43:30;22.20;99.50
15676;DHT22;7938;47.666;9.434;2022-09-04T17:46:16;22.10;99.70
15676;DHT22;7938;47.666;9.434;2022-09-04T17:48:49;21.90;99.90
15676;DHT22;7938;47.666;9.434;2022-09-04T17:51:24;21.50;99.90
15676;DHT22;7938;47.666;9.434;2022-09-04T17:53:56;21.50;99.90
15676;DHT22;7938;47.666;9.434;2022-09-04T17:56:26;21.40;99.90
15676;DHT22;7938;47.666;9.434;2022-09-04T17:58:59;21.20;99.90
15676;DHT22;7938;47.666;9.434;2022-09-04T18:01:31;21.00;99.90
15676;DHT22;7938;47.666;9.434;2022-09-04T18:04:23;20.90;99.90
15676;DHT22;7938;47.666;9.434;2022-09-04T18:06:58;20.60;99.90
15676;DHT22;7938;47.666;9.434;2022-09-04T18:09:34;20.40;99.90
15676;DHT22;7938;47.666;9.434;2022-09-04T18:12:10;20.30;99.90
15676;DHT22;7938;47.666;9.434;2022-09-04T18:14:47;20.20;99.90
15676;DHT22;7938;47.666;9.434;2022-09-04T18:17:22;20.10;99.90
15676;DHT22;7938;47.666;9.434;2022-09-04T18:20:01;20.00;99.90
15676;DHT22;7938;47.666;9.434;2022-09-04T18:23:04;19.90;99.90
15676;DHT22;7938;47.666;9.434;2022-09-04T18:25:41;19.80;99.90
15676;DHT22;7938;47.666;9.434;2022-09-04T18:28:14;19.60;99.90
15676;DHT22;7938;47.666;9.434;2022-09-04T18:31:05;19.30;99.90
15676;DHT22;7938;47.666;9.434;2022-09-04T18:33:38;19.20;99.90
15676;DHT22;7938;47.666;9.434;2022-09-04T18:36:13;19.00;99.90
15676;DHT22;7938;47.666;9.434;2022-09-04T18:38:47;19.00;99.90
15676;DHT22;7938;47.666;9.434;2022-09-04T18:41:25;18.90;99.90
15676;DHT22;7938;47.666;9.434;2022-09-04T18:43:59;18.80;99.90
15676;DHT22;7938;47.666;9.434;2022-09-04T18:46:29;18.80;99.90
15676;DHT22;7938;47.666;9.434;2022-09-04T18:49:00;18.70;99.90
15676;DHT22;7938;47.666;9.434;2022-09-04T18:51:32;18.50;99.90
15676;DHT22;7938;47.666;9.434;2022-09-04T18:54:05;18.50;99.90
15676;DHT22;7938;47.666;9.434;2022-09-04T18:56:40;18.30;99.90
15676;DHT22;7938;47.666;9.434;2022-09-04T18:59:14;18.30;99.90
15676;DHT22;7938;47.666;9.434;2022-09-04T19:01:46;18.30;99.90
15676;DHT22;7938;47.666;9.434;2022-09-04T19:04:35;18.20;99.90
15676;DHT22;7938;47.666;9.434;2022-09-04T19:07:05;18.10;99.90
15676;DHT22;7938;47.666;9.434;2022-09-04T19:09:57;18.10;99.90
15676;DHT22;7938;47.666;9.434;2022-09-04T19:12:38;18.00;99.90
15676;DHT22;7938;47.666;9.434;2022-09-04T19:15:24;18.00;99.90
15676;DHT22;7938;47.666;9.434;2022-09-04T19:17:56;17.90;99.90
15676;DHT22;7938;47.666;9.434;2022-09-04T19:20:29;17.80;99.90
15676;DHT22;7938;47.666;9.434;2022-09-04T19:23:00;17.70;99.90
15676;DHT22;7938;47.666;9.434;2022-09-04T19:25:33;17.70;99.90
15676;DHT22;7938;47.666;9.434;2022-09-04T19:28:09;17.70;99.90
15676;DHT22;7938;47.666;9.434;2022-09-04T19:30:47;17.60;99.90
15676;DHT22;7938;47.666;9.434;2022-09-04T19:33:22;17.70;99.90
15676;DHT22;7938;47.666;9.434;2022-09-04T19:35:54;17.70;99.90
15676;DHT22;7938;47.666;9.434;2022-09-04T19:38:27;17.70;99.90
15676;DHT22;7938;47.666;9.434;2022-09-04T19:40:58;17.80;99.90
15676;DHT22;7938;47.666;9.434;2022-09-04T19:43:36;17.80;99.90
15676;DHT22;7938;47.666;9.434;2022-09-04T19:46:26;17.90;99.90
15676;DHT22;7938;47.666;9.434;2022-09-04T19:49:09;17.80;99.90
15676;DHT22;7938;47.666;9.434;2022-09-04T19:51:42;17.90;99.90
15676;DHT22;7938;47.666;9.434;2022-09-04T19:54:19;18.00;99.90
15676;DHT22;7938;47.666;9.434;2022-09-04T19:56:48;18.00;99.90
15676;DHT22;7938;47.666;9.434;2022-09-04T19:59:24;18.00;99.90
15676;DHT22;7938;47.666;9.434;2022-09-04T20:01:54;18.00;99.90
15676;DHT22;7938;47.666;9.434;2022-09-04T20:04:31;17.90;99.90
15676;DHT22;7938;47.666;9.434;2022-09-04T20:07:02;17.80;99.90
15676;DHT22;7938;47.666;9.434;2022-09-04T20:09:35;17.90;99.90
15676;DHT22;7938;47.666;9.434;2022-09-04T20:12:15;17.80;99.90
15676;DHT22;7938;47.666;9.434;2022-09-04T20:14:47;17.80;99.90
15676;DHT22;7938;47.666;9.434;2022-09-04T20:17:36;17.60;99.90
15676;DHT22;7938;47.666;9.434;2022-09-04T20:20:14;17.50;99.90
15676;DHT22;7938;47.666;9.434;2022-09-04T20:22:47;17.40;99.90
15676;DHT22;7938;47.666;9.434;2022-09-04T20:25:31;17.40;99.90
15676;DHT22;7938;47.666;9.434;2022-09-04T20:28:13;17.30;99.90
15676;DHT22;7938;47.666;9.434;2022-09-04T20:30:47;17.50;99.90
15676;DHT22;7938;47.666;9.434;2022-09-04T20:33:28;17.50;99.90
15676;DHT22;7938;47.666;9.434;2022-09-04T20:36:01;17.60;99.90
15676;DHT22;7938;47.666;9.434;2022-09-04T20:38:39;17.60;99.90
15676;DHT22;7938;47.666;9.434;2022-09-04T20:41:16;17.70;99.90
15676;DHT22;7938;47.666;9.434;2022-09-04T20:43:50;17.70;99.90
15676;DHT22;7938;47.666;9.434;2022-09-04T20:46:26;17.80;99.90
15676;DHT22;7938;47.666;9.434;2022-09-04T20:48:59;17.70;99.90
15676;DHT22;7938;47.666;9.434;2022-09-04T20:51:29;17.70;99.90
15676;DHT22;7938;47.666;9.434;2022-09-04T20:54:10;17.70;99.90
15676;DHT22;7938;47.666;9.434;2022-09-04T20:56:48;17.70;99.90
15676;DHT22;7938;47.666;9.434;2022-09-04T20:59:25;17.70;99.90
15676;DHT22;7938;47.666;9.434;2022-09-04T21:02:06;17.80;99.90
15676;DHT22;7938;47.666;9.434;2022-09-04T21:04:39;17.80;99.90
15676;DHT22;7938;47.666;9.434;2022-09-04T21:07:18;17.90;99.90
15676;DHT22;7938;47.666;9.434;2022-09-04T21:09:56;18.00;99.90
15676;DHT22;7938;47.666;9.434;2022-09-04T21:12:34;17.90;99.90
15676;DHT22;7938;47.666;9.434;2022-09-04T21:15:09;17.90;99.90
15676;DHT22;7938;47.666;9.434;2022-09-04T21:17:58;17.80;99.90
15676;DHT22;7938;47.666;9.434;2022-09-04T21:20:41;17.60;99.90
15676;DHT22;7938;47.666;9.434;2022-09-04T21:23:34;17.60;99.90
15676;DHT22;7938;47.666;9.434;2022-09-04T21:26:15;17.50;99.90
15676;DHT22;7938;47.666;9.434;2022-09-04T21:28:57;17.50;99.90
15676;DHT22;7938;47.666;9.434;2022-09-04T21:31:53;17.30;99.90
15676;DHT22;7938;47.666;9.434;2022-09-04T21:34:38;17.20;99.90
15676;DHT22;7938;47.666;9.434;2022-09-04T21:37:15;17.00;99.90
15676;DHT22;7938;47.666;9.434;2022-09-04T21:40:06;16.80;99.90
15676;DHT22;7938;47.666;9.434;2022-09-04T21:43:10;16.60;99.90
15676;DHT22;7938;47.666;9.434;2022-09-04T21:45:55;16.50;99.90
15676;DHT22;7938;47.666;9.434;2022-09-04T21:48:48;16.30;99.90
15676;DHT22;7938;47.666;9.434;2022-09-04T21:54:50;16.10;99.90
15676;DHT22;7938;47.666;9.434;2022-09-04T21:57:36;16.00;99.90
15676;DHT22;7938;47.666;9.434;2022-09-04T22:00:13;16.00;99.90
15676;DHT22;7938;47.666;9.434;2022-09-04T22:03:19;15.90;99.90
15676;DHT22;7938;47.666;9.434;2022-09-04T22:06:02;16.00;99.90
15676;DHT22;7938;47.666;9.434;2022-09-04T22:08:43;16.00;99.90
15676;DHT22;7938;47.666;9.434;2022-09-04T22:11:29;15.90;99.90
15676;DHT22;7938;47.666;9.434;2022-09-04T22:14:02;15.90;99.90
15676;DHT22;7938;47.666;9.434;2022-09-04T22:16:48;16.00;99.90
15676;DHT22;7938;47.666;9.434;2022-09-04T22:22:44;16.10;99.90
15676;DHT22;7938;47.666;9.434;2022-09-04T22:25:37;16.00;99.90
15676;DHT22;7938;47.666;9.434;2022-09-04T22:28:44;16.00;99.90
15676;DHT22;7938;47.666;9.434;2022-09-04T22:34:49;15.90;99.90
15676;DHT22;7938;47.666;9.434;2022-09-04T22:40:37;16.00;99.90
15676;DHT22;7938;47.666;9.434;2022-09-04T22:43:11;16.00;99.90
15676;DHT22;7938;47.666;9.434;2022-09-04T22:46:12;16.00;99.90
15676;DHT22;7938;47.666;9.434;2022-09-04T22:49:15;15.90;99.90
15676;DHT22;7938;47.666;9.434;2022-09-04T22:52:11;15.70;99.90
15676;DHT22;7938;47.666;9.434;2022-09-04T22:54:59;15.70;99.90
15676;DHT22;7938;47.666;9.434;2022-09-04T22:57:38;15.60;99.90
